createdAt,value
2022-08-29T00:00:22.401Z,18.72
2022-08-29T00:05:42.522Z,18.69
2022-08-29T00:10:50.043Z,18.67
2022-08-29T00:15:57.270Z,18.64
2022-08-29T00:21:05.181Z,18.60
2022-08-29T00:26:12.069Z,18.58
2022-08-29T00:31:19.289Z,18.57
2022-08-29T00:36:27.404Z,18.56
2022-08-29T00:41:37.778Z,18.53
2022-08-29T00:46:52.450Z,18.51
2022-08-29T00:52:01.282Z,18.49
2022-08-29T00:57:09.642Z,18.48
2022-08-29T01:02:17.115Z,18.47
2022-08-29T01:07:24.341Z,18.46
2022-08-29T01:12:34.408Z,18.45
2022-08-29T01:17:50.215Z,18.42
2022-08-29T01:23:08.841Z,18.44
2022-08-29T01:28:20.072Z,18.47
2022-08-29T01:33:27.803Z,18.46
2022-08-29T01:38:34.797Z,18.47
2022-08-29T01:43:47.381Z,18.48
2022-08-29T01:48:54.773Z,18.49
2022-08-29T01:54:01.698Z,18.50
2022-08-29T01:59:11.047Z,18.50
2022-08-29T02:04:18.427Z,18.52
2022-08-29T02:09:26.526Z,18.52
2022-08-29T02:14:34.882Z,18.51
2022-08-29T02:19:42.870Z,18.49
2022-08-29T02:24:49.872Z,18.48
2022-08-29T02:29:56.872Z,18.47
2022-08-29T02:35:05.064Z,18.46
2022-08-29T02:40:13.467Z,18.45
2022-08-29T02:45:22.199Z,18.43
2022-08-29T02:50:30.020Z,18.41
2022-08-29T02:55:37.267Z,18.39
2022-08-29T03:00:44.915Z,18.37
2022-08-29T03:05:52.301Z,18.36
2022-08-29T03:10:59.515Z,18.35
2022-08-29T03:16:07.245Z,18.33
2022-08-29T03:21:20.814Z,18.32
2022-08-29T03:26:28.276Z,18.30
2022-08-29T03:31:35.943Z,18.28
2022-08-29T03:36:43.246Z,18.28
2022-08-29T03:41:50.215Z,18.27
2022-08-29T03:46:57.173Z,18.22
2022-08-29T03:52:05.309Z,18.17
2022-08-29T03:57:12.378Z,18.14
2022-08-29T04:02:19.630Z,18.11
2022-08-29T04:07:26.942Z,18.05
2022-08-29T04:12:33.989Z,18.05
2022-08-29T04:17:52.864Z,18.02
2022-08-29T04:23:01.613Z,17.99
2022-08-29T04:28:10.257Z,17.97
2022-08-29T04:33:22.877Z,17.93
2022-08-29T04:38:30.281Z,17.90
2022-08-29T04:43:37.195Z,17.92
2022-08-29T04:48:46.126Z,17.93
2022-08-29T04:53:54.453Z,17.91
2022-08-29T04:59:01.776Z,17.91
2022-08-29T05:04:12.504Z,17.90
2022-08-29T05:09:22.357Z,17.89
2022-08-29T05:14:29.359Z,17.85
2022-08-29T05:19:36.718Z,17.83
2022-08-29T05:24:51.032Z,17.79
2022-08-29T05:29:59.896Z,17.76
2022-08-29T05:35:07.531Z,17.72
2022-08-29T05:40:15.007Z,17.71
2022-08-29T05:45:23.685Z,17.72
2022-08-29T05:50:30.689Z,17.70
2022-08-29T05:55:42.138Z,17.71
2022-08-29T06:00:50.042Z,17.69
2022-08-29T06:05:57.012Z,17.67
2022-08-29T06:11:04.535Z,17.66
2022-08-29T06:16:14.529Z,17.64
2022-08-29T06:21:21.849Z,17.63
2022-08-29T06:26:29.013Z,17.60
2022-08-29T06:31:36.814Z,17.58
2022-08-29T06:36:44.157Z,17.55
2022-08-29T06:41:51.372Z,17.53
2022-08-29T06:46:58.817Z,17.53
2022-08-29T06:52:06.605Z,17.61
2022-08-29T06:57:13.577Z,17.73
2022-08-29T07:02:21.984Z,17.88
2022-08-29T07:07:29.618Z,18.03
2022-08-29T07:12:44.710Z,18.14
2022-08-29T07:17:56.591Z,18.25
2022-08-29T07:23:06.803Z,18.33
2022-08-29T07:28:16.578Z,18.40
2022-08-29T07:33:24.026Z,18.45
2022-08-29T07:38:33.728Z,18.44
2022-08-29T07:43:45.843Z,18.46
2022-08-29T07:48:56.128Z,18.57
2022-08-29T07:54:04.569Z,18.76
2022-08-29T07:59:12.807Z,18.92
2022-08-29T08:04:19.979Z,19.00
2022-08-29T08:09:27.751Z,19.12
2022-08-29T08:14:35.920Z,19.23
2022-08-29T08:19:43.289Z,19.36
2022-08-29T08:24:50.431Z,19.53
2022-08-29T08:29:59.957Z,19.49
2022-08-29T08:35:09.270Z,19.38
2022-08-29T08:40:23.466Z,19.50
2022-08-29T08:45:37.728Z,19.75
2022-08-29T08:50:53.774Z,19.89
2022-08-29T08:56:05.994Z,19.94
2022-08-29T09:01:23.180Z,19.88
2022-08-29T09:06:46.604Z,19.84
2022-08-29T09:12:03.331Z,19.88
2022-08-29T09:17:17.097Z,19.92
2022-08-29T09:22:33.119Z,19.91
2022-08-29T09:27:41.531Z,19.99
2022-08-29T09:32:59.050Z,20.15
2022-08-29T09:38:09.561Z,20.27
2022-08-29T09:43:27.280Z,20.23
2022-08-29T09:48:36.848Z,20.24
2022-08-29T09:53:44.877Z,20.33
2022-08-29T09:59:01.870Z,20.38
2022-08-29T10:04:10.415Z,20.52
2022-08-29T10:09:30.549Z,20.70
2022-08-29T10:14:49.948Z,20.79
2022-08-29T10:19:59.052Z,20.71
2022-08-29T10:25:14.469Z,20.75
2022-08-29T10:30:24.660Z,20.89
2022-08-29T10:35:36.869Z,20.87
2022-08-29T10:40:48.747Z,20.86
2022-08-29T10:46:20.321Z,20.99
2022-08-29T10:51:39.197Z,20.97
2022-08-29T10:56:49.770Z,20.96
2022-08-29T11:02:02.916Z,21.02
2022-08-29T11:07:16.671Z,20.98
2022-08-29T11:12:33.756Z,20.96
2022-08-29T11:17:46.575Z,21.14
2022-08-29T11:22:59.215Z,21.43
2022-08-29T11:28:19.159Z,21.65
2022-08-29T11:33:35.733Z,21.64
2022-08-29T11:39:02.940Z,21.67
2022-08-29T11:44:20.649Z,21.70
2022-08-29T11:49:47.950Z,21.75
2022-08-29T11:55:26.572Z,21.91
2022-08-29T12:00:52.620Z,22.02
2022-08-29T12:06:05.703Z,21.91
2022-08-29T12:11:13.421Z,21.92
2022-08-29T12:16:25.822Z,21.97
2022-08-29T12:21:47.368Z,21.97
2022-08-29T12:26:55.073Z,21.95
2022-08-29T12:32:39.998Z,21.87
2022-08-29T12:38:03.415Z,21.68
2022-08-29T12:43:29.540Z,21.53
2022-08-29T12:48:43.578Z,21.55
2022-08-29T12:53:56.676Z,21.76
2022-08-29T12:59:06.558Z,21.94
2022-08-29T13:04:19.105Z,22.05
2022-08-29T13:09:44.619Z,21.99
2022-08-29T13:14:54.802Z,21.94
2022-08-29T13:20:36.510Z,22.07
2022-08-29T13:25:50.766Z,22.28
2022-08-29T13:31:23.066Z,22.39
2022-08-29T13:36:39.405Z,22.34
2022-08-29T13:41:49.066Z,22.27
2022-08-29T13:46:59.529Z,22.14
2022-08-29T13:52:07.561Z,22.06
2022-08-29T13:57:19.621Z,22.12
2022-08-29T14:02:28.090Z,22.15
2022-08-29T14:07:37.261Z,22.12
2022-08-29T14:12:45.473Z,22.04
2022-08-29T14:17:52.544Z,21.98
2022-08-29T14:22:59.750Z,22.05
2022-08-29T14:28:08.231Z,22.21
2022-08-29T14:33:15.574Z,22.33
2022-08-29T14:38:27.090Z,22.42
2022-08-29T14:43:37.808Z,22.47
2022-08-29T14:48:46.703Z,22.52
2022-08-29T14:53:54.881Z,22.41
2022-08-29T14:59:02.391Z,22.35
2022-08-29T15:04:09.651Z,22.34
2022-08-29T15:09:18.600Z,22.32
2022-08-29T15:14:25.673Z,22.25
2022-08-29T15:25:00.786Z,22.24
2022-08-29T15:30:09.651Z,22.12
2022-08-29T15:35:16.785Z,22.00
2022-08-29T15:40:27.360Z,21.97
2022-08-29T15:45:34.421Z,21.99
2022-08-29T15:50:43.571Z,21.91
2022-08-29T15:55:52.718Z,21.83
2022-08-29T16:01:00.109Z,21.78
2022-08-29T16:06:07.485Z,21.74
2022-08-29T16:11:14.432Z,21.76
2022-08-29T16:16:22.182Z,21.77
2022-08-29T16:21:29.249Z,21.77
2022-08-29T16:26:37.129Z,21.73
2022-08-29T16:31:44.068Z,21.69
2022-08-29T16:36:51.458Z,21.60
2022-08-29T16:41:59.298Z,21.51
2022-08-29T16:47:06.926Z,21.44
2022-08-29T16:52:15.296Z,21.37
2022-08-29T16:57:22.341Z,21.30
2022-08-29T17:02:29.712Z,21.23
2022-08-29T17:07:36.032Z,21.16
2022-08-29T17:12:41.908Z,21.07
2022-08-29T17:17:48.915Z,20.98
2022-08-29T17:22:55.885Z,20.87
2022-08-29T17:28:19.173Z,20.78
2022-08-29T17:33:28.083Z,20.64
2022-08-29T17:38:35.506Z,20.51
2022-08-29T17:43:45.146Z,20.33
2022-08-29T17:48:52.236Z,20.19
2022-08-29T17:53:59.227Z,20.11
2022-08-29T17:59:06.916Z,20.01
2022-08-29T18:04:15.660Z,19.88
2022-08-29T18:09:24.262Z,19.74
2022-08-29T18:14:31.308Z,19.62
2022-08-29T18:19:38.917Z,19.52
2022-08-29T18:24:48.228Z,19.42
2022-08-29T18:29:55.576Z,19.31
2022-08-29T18:35:05.760Z,19.20
2022-08-29T18:40:13.923Z,19.07
2022-08-29T18:45:21.017Z,18.92
2022-08-29T18:50:39.382Z,18.76
2022-08-29T18:55:51.248Z,18.63
2022-08-29T19:01:10.630Z,18.49
2022-08-29T19:06:18.043Z,18.43
2022-08-29T19:11:25.381Z,18.35
2022-08-29T19:16:32.901Z,18.17
2022-08-29T19:21:42.484Z,17.89
2022-08-29T19:26:49.493Z,17.66
2022-08-29T19:31:58.586Z,17.47
2022-08-29T19:37:06.783Z,17.24
2022-08-29T20:03:34.539Z,16.81
2022-08-29T20:08:43.939Z,16.71
2022-08-29T20:13:52.198Z,16.56
2022-08-29T20:18:59.489Z,16.35
2022-08-29T20:24:08.166Z,16.18
2022-08-29T20:29:17.623Z,16.10
2022-08-29T20:34:28.574Z,16.12
2022-08-29T20:39:36.507Z,16.05
2022-08-29T20:44:45.610Z,16.02
2022-08-29T20:49:56.048Z,16.04
2022-08-29T20:55:03.364Z,15.92
2022-08-29T21:00:13.412Z,15.83
2022-08-29T21:05:41.310Z,15.73
2022-08-29T21:10:50.773Z,15.66
2022-08-29T21:15:58.256Z,15.59
2022-08-29T21:21:06.897Z,15.47
2022-08-29T21:26:23.118Z,15.38
2022-08-29T21:31:32.305Z,15.37
2022-08-29T21:36:45.844Z,15.29
2022-08-29T21:41:54.526Z,15.19
2022-08-29T21:47:05.712Z,15.14
2022-08-29T21:52:14.524Z,15.12
2022-08-29T21:57:39.075Z,15.05
2022-08-29T22:02:49.146Z,14.94
2022-08-29T22:07:58.940Z,14.99
2022-08-29T22:13:08.411Z,14.95
2022-08-29T22:18:16.533Z,14.89
2022-08-29T22:23:25.582Z,14.83
2022-08-29T22:28:34.451Z,14.77
2022-08-29T22:33:44.777Z,14.76
2022-08-29T22:38:56.382Z,14.78
2022-08-29T22:49:34.593Z,14.68
2022-08-29T22:54:43.823Z,14.63
2022-08-29T22:59:51.899Z,14.62
2022-08-29T23:04:59.986Z,14.57
2022-08-29T23:10:12.867Z,14.46
2022-08-29T23:15:23.740Z,14.39
2022-08-29T23:20:34.710Z,14.35
2022-08-29T23:25:43.267Z,14.34
2022-08-29T23:30:52.017Z,14.33
2022-08-29T23:36:00.751Z,14.29
2022-08-29T23:41:10.400Z,14.25
2022-08-29T23:46:19.988Z,14.19
2022-08-29T23:51:28.519Z,14.11
2022-08-29T23:56:38.510Z,14.04
